createdAt,value
2019-05-09T00:01:33.991Z,7.47
2019-05-09T00:04:03.349Z,8.33
2019-05-09T00:06:34.030Z,9.00
2019-05-09T00:09:03.783Z,9.87
2019-05-09T00:11:33.587Z,8.50
2019-05-09T00:14:04.189Z,8.63
2019-05-09T00:16:33.555Z,8.10
2019-05-09T00:19:03.242Z,8.47
2019-05-09T00:21:43.760Z,8.00
2019-05-09T00:24:13.860Z,8.77
2019-05-09T00:26:44.266Z,9.40
2019-05-09T00:29:17.256Z,8.90
2019-05-09T00:31:56.126Z,9.77
2019-05-09T00:34:37.812Z,10.13
2019-05-09T00:37:06.283Z,7.83
2019-05-09T00:39:34.998Z,8.13
2019-05-09T00:42:04.344Z,8.67
2019-05-09T00:44:40.688Z,8.63
2019-05-09T00:47:13.729Z,8.03
2019-05-09T00:49:43.493Z,9.47
2019-05-09T00:52:14.107Z,8.13
2019-05-09T00:54:43.766Z,8.60
2019-05-09T00:57:13.928Z,8.73
2019-05-09T00:59:44.523Z,8.83
2019-05-09T01:02:13.153Z,10.07
2019-05-09T01:04:43.804Z,10.33
2019-05-09T01:07:13.910Z,11.00
2019-05-09T01:09:43.964Z,8.87
2019-05-09T01:12:14.343Z,9.40
2019-05-09T01:14:43.377Z,9.63
2019-05-09T01:17:13.549Z,9.20
2019-05-09T01:19:43.272Z,9.27
2019-05-09T01:22:13.217Z,11.27
2019-05-09T01:24:44.090Z,8.70
2019-05-09T01:27:14.099Z,10.70
2019-05-09T01:29:43.919Z,9.10
2019-05-09T01:32:14.522Z,11.13
2019-05-09T01:34:43.704Z,12.67
2019-05-09T01:37:14.094Z,12.27
2019-05-09T01:39:44.029Z,12.17
2019-05-09T01:42:13.758Z,12.40
2019-05-09T01:44:44.010Z,13.50
2019-05-09T01:47:14.117Z,11.43
2019-05-09T01:49:43.136Z,12.43
2019-05-09T01:52:13.759Z,11.87
2019-05-09T01:54:43.611Z,12.20
2019-05-09T01:57:13.819Z,11.03
2019-05-09T01:59:44.396Z,10.70
2019-05-09T02:02:14.261Z,11.60
2019-05-09T02:04:43.937Z,9.60
2019-05-09T02:07:13.286Z,11.10
2019-05-09T02:09:43.459Z,11.73
2019-05-09T02:12:13.976Z,11.50
2019-05-09T02:14:44.926Z,11.23
2019-05-09T02:17:23.137Z,11.17
2019-05-09T02:19:52.827Z,12.50
2019-05-09T02:22:34.478Z,10.67
2019-05-09T02:25:06.167Z,11.73
2019-05-09T02:27:34.620Z,9.87
2019-05-09T02:30:05.913Z,10.17
2019-05-09T02:32:35.758Z,9.37
2019-05-09T02:35:06.806Z,10.73
2019-05-09T02:37:38.547Z,12.60
2019-05-09T02:40:09.721Z,10.93
2019-05-09T02:42:39.627Z,12.73
2019-05-09T02:45:08.494Z,11.30
2019-05-09T02:47:38.461Z,9.67
2019-05-09T02:50:09.481Z,10.73
2019-05-09T02:52:39.581Z,9.60
2019-05-09T02:55:10.314Z,8.73
2019-05-09T02:57:39.194Z,11.13
2019-05-09T03:00:12.283Z,9.73
2019-05-09T03:02:48.509Z,9.77
2019-05-09T03:05:19.240Z,10.17
2019-05-09T03:07:51.904Z,10.53
2019-05-09T03:10:21.422Z,10.40
2019-05-09T03:12:50.766Z,10.57
2019-05-09T03:15:19.847Z,9.27
2019-05-09T03:17:49.662Z,9.23
2019-05-09T03:20:28.821Z,12.07
2019-05-09T03:22:58.263Z,11.57
2019-05-09T03:25:28.930Z,10.20
2019-05-09T03:27:59.055Z,11.00
2019-05-09T03:30:31.851Z,9.97
2019-05-09T03:33:00.438Z,10.23
2019-05-09T03:35:28.935Z,9.87
2019-05-09T03:38:02.003Z,10.40
2019-05-09T03:40:30.535Z,11.27
2019-05-09T03:42:59.700Z,10.77
2019-05-09T03:45:28.166Z,12.47
2019-05-09T03:47:58.342Z,11.77
2019-05-09T03:50:27.999Z,12.03
2019-05-09T03:52:57.963Z,12.23
2019-05-09T03:55:28.303Z,13.07
2019-05-09T03:58:01.608Z,14.70
2019-05-09T04:00:30.142Z,13.97
2019-05-09T04:02:58.616Z,13.97
2019-05-09T04:05:27.396Z,16.63
2019-05-09T04:07:58.344Z,16.17
2019-05-09T04:10:28.203Z,14.47
2019-05-09T04:12:59.486Z,18.17
2019-05-09T04:15:27.548Z,19.60
2019-05-09T04:17:57.896Z,16.03
2019-05-09T04:20:27.687Z,16.10
2019-05-09T04:22:59.292Z,16.17
2019-05-09T04:25:28.577Z,15.47
2019-05-09T04:27:58.327Z,16.17
2019-05-09T04:30:27.503Z,16.23
2019-05-09T04:32:58.045Z,17.63
2019-05-09T04:35:27.976Z,14.70
2019-05-09T04:37:58.441Z,15.80
2019-05-09T04:40:31.643Z,14.57
2019-05-09T04:43:10.797Z,15.97
2019-05-09T04:45:41.752Z,17.90
2019-05-09T04:48:13.207Z,16.07
2019-05-09T04:50:40.078Z,16.53
2019-05-09T04:53:09.566Z,16.77
2019-05-09T04:55:39.257Z,13.03
2019-05-09T04:58:09.313Z,14.70
2019-05-09T05:00:57.284Z,14.33
2019-05-09T05:03:28.246Z,13.77
2019-05-09T05:05:58.195Z,16.47
2019-05-09T05:08:28.413Z,12.13
2019-05-09T05:10:58.251Z,13.37
2019-05-09T05:13:29.605Z,13.20
2019-05-09T05:15:57.927Z,13.43
2019-05-09T05:18:28.427Z,12.47
2019-05-09T05:20:57.797Z,13.80
2019-05-09T05:23:31.342Z,12.20
2019-05-09T05:26:00.085Z,11.27
2019-05-09T05:28:28.611Z,12.33
2019-05-09T05:30:58.178Z,14.80
2019-05-09T05:33:44.983Z,11.97
2019-05-09T05:36:15.404Z,10.73
2019-05-09T05:38:44.135Z,10.63
2019-05-09T05:41:12.946Z,11.43
2019-05-09T05:43:44.547Z,11.17
2019-05-09T05:46:29.722Z,11.30
2019-05-09T05:48:58.249Z,13.70
2019-05-09T05:51:27.668Z,12.30
2019-05-09T05:53:57.327Z,12.23
2019-05-09T05:56:27.983Z,13.47
2019-05-09T05:58:58.025Z,11.30
2019-05-09T06:01:27.829Z,12.73
2019-05-09T06:03:58.659Z,13.00
2019-05-09T06:06:27.932Z,13.03
2019-05-09T06:08:58.080Z,12.93
2019-05-09T06:11:48.219Z,12.47
2019-05-09T06:14:18.189Z,12.53
2019-05-09T06:16:48.561Z,14.00
2019-05-09T06:19:17.857Z,14.53
2019-05-09T06:21:48.547Z,21.20
2019-05-09T06:24:17.841Z,13.20
2019-05-09T06:26:47.904Z,14.60
2019-05-09T06:29:17.726Z,16.33
2019-05-09T06:31:48.432Z,16.50
2019-05-09T06:34:18.783Z,14.10
2019-05-09T06:36:48.852Z,13.87
2019-05-09T06:39:19.864Z,15.93
2019-05-09T06:41:48.722Z,18.30
2019-05-09T06:44:21.850Z,15.50
2019-05-09T06:46:58.556Z,14.70
2019-05-09T06:49:31.749Z,15.43
2019-05-09T06:51:59.536Z,13.23
2019-05-09T06:54:28.034Z,15.10
2019-05-09T06:56:58.497Z,17.57
2019-05-09T06:59:28.303Z,14.60
2019-05-09T07:02:01.659Z,13.47
2019-05-09T07:04:38.134Z,13.77
2019-05-09T07:07:23.855Z,13.57
2019-05-09T07:09:58.553Z,13.10
2019-05-09T07:12:27.469Z,13.43
2019-05-09T07:14:58.293Z,14.03
2019-05-09T07:17:31.671Z,12.10
2019-05-09T07:19:59.227Z,14.13
2019-05-09T07:22:32.353Z,12.43
2019-05-09T07:25:06.849Z,10.90
2019-05-09T07:27:43.481Z,11.27
2019-05-09T07:30:22.684Z,11.53
2019-05-09T07:33:11.816Z,9.53
2019-05-09T07:35:40.694Z,10.97
2019-05-09T07:38:12.184Z,8.20
2019-05-09T07:40:42.088Z,9.33
2019-05-09T07:43:10.715Z,14.93
2019-05-09T07:45:42.426Z,8.27
2019-05-09T07:48:10.947Z,9.83
2019-05-09T07:50:42.145Z,8.10
2019-05-09T07:53:10.969Z,7.80
2019-05-09T07:55:40.984Z,8.00
2019-05-09T07:58:14.230Z,8.13
2019-05-09T08:00:41.564Z,10.47
2019-05-09T08:03:13.110Z,8.80
2019-05-09T08:05:44.030Z,10.10
2019-05-09T08:08:18.575Z,10.03
2019-05-09T08:10:47.792Z,10.20
2019-05-09T08:13:23.686Z,11.70
2019-05-09T08:15:49.542Z,11.93
2019-05-09T08:18:18.084Z,12.10
2019-05-09T08:20:47.916Z,9.87
2019-05-09T08:23:18.095Z,12.30
2019-05-09T08:25:48.500Z,10.40
2019-05-09T08:28:19.979Z,10.33
2019-05-09T08:30:54.445Z,10.63
2019-05-09T08:33:23.004Z,11.97
2019-05-09T08:35:52.773Z,12.63
2019-05-09T08:38:22.993Z,12.80
2019-05-09T08:40:53.225Z,13.77
2019-05-09T08:43:23.545Z,12.10
2019-05-09T08:45:52.167Z,12.17
2019-05-09T08:48:20.761Z,13.47
2019-05-09T08:50:50.947Z,11.97
2019-05-09T08:53:19.469Z,12.93
2019-05-09T08:55:48.258Z,12.60
2019-05-09T08:58:19.565Z,13.10
2019-05-09T09:00:48.993Z,11.83
2019-05-09T09:03:18.985Z,11.83
2019-05-09T09:05:48.581Z,11.07
2019-05-09T09:08:18.335Z,10.13
2019-05-09T09:10:48.788Z,11.40
2019-05-09T09:13:17.950Z,10.30
2019-05-09T09:16:05.477Z,13.77
2019-05-09T09:18:17.927Z,10.43
2019-05-09T09:20:52.974Z,10.70
2019-05-09T09:23:39.789Z,10.63
2019-05-09T09:25:54.475Z,12.57
2019-05-09T09:28:22.970Z,11.03
2019-05-09T09:30:51.722Z,10.17
2019-05-09T09:33:20.349Z,10.83
2019-05-09T09:35:49.219Z,11.73
2019-05-09T09:38:18.078Z,13.80
2019-05-09T09:40:47.738Z,10.33
2019-05-09T09:43:19.236Z,9.77
2019-05-09T09:45:49.639Z,9.20
2019-05-09T09:48:19.917Z,9.13
2019-05-09T09:50:51.883Z,8.47
2019-05-09T09:53:23.622Z,10.30
2019-05-09T09:56:08.738Z,10.83
2019-05-09T09:58:38.078Z,8.77
2019-05-09T10:01:24.810Z,9.20
2019-05-09T10:03:54.983Z,9.57
2019-05-09T10:06:25.292Z,8.40
2019-05-09T10:08:57.841Z,9.87
2019-05-09T10:11:28.652Z,10.70
2019-05-09T10:14:00.444Z,10.63
2019-05-09T10:16:41.296Z,11.43
2019-05-09T10:19:18.399Z,9.87
2019-05-09T10:21:54.277Z,8.07
2019-05-09T10:25:04.566Z,8.17
2019-05-09T10:27:38.607Z,9.97
2019-05-09T10:30:13.669Z,8.93
2019-05-09T10:32:43.818Z,6.93
2019-05-09T10:35:17.586Z,8.23
2019-05-09T10:37:48.542Z,9.47
2019-05-09T10:40:22.918Z,7.83
2019-05-09T10:43:02.200Z,7.00
2019-05-09T10:45:44.624Z,8.23
2019-05-09T10:48:13.179Z,9.77
2019-05-09T10:50:53.620Z,5.87
2019-05-09T10:53:17.969Z,8.70
2019-05-09T10:55:48.120Z,7.10
2019-05-09T10:58:20.200Z,8.30
2019-05-09T11:00:48.744Z,9.20
2019-05-09T11:03:18.117Z,6.80
2019-05-09T11:05:47.756Z,6.30
2019-05-09T11:08:18.474Z,9.20
2019-05-09T11:10:48.443Z,10.33
2019-05-09T11:13:18.158Z,8.57
2019-05-09T11:15:48.439Z,7.07
2019-05-09T11:18:18.522Z,5.57
2019-05-09T11:20:47.176Z,8.80
2019-05-09T11:23:19.675Z,9.13
2019-05-09T11:25:48.509Z,8.93
2019-05-09T11:28:18.828Z,8.27
2019-05-09T11:30:52.345Z,8.33
2019-05-09T11:33:20.804Z,6.73
2019-05-09T11:35:49.360Z,9.77
2019-05-09T11:38:30.963Z,11.73
2019-05-09T11:40:48.551Z,9.07
2019-05-09T11:43:18.177Z,11.20
2019-05-09T11:45:47.900Z,9.50
2019-05-09T11:48:18.609Z,7.70
2019-05-09T11:50:49.354Z,8.00
2019-05-09T11:53:17.836Z,8.00
2019-05-09T11:55:48.406Z,8.23
2019-05-09T12:01:08.084Z,12.37
2019-05-09T12:03:38.705Z,7.23
2019-05-09T12:06:07.988Z,9.80
2019-05-09T12:08:38.726Z,8.80
2019-05-09T12:11:08.410Z,6.87
2019-05-09T12:13:38.050Z,7.57
2019-05-09T12:16:06.706Z,8.60
2019-05-09T12:18:37.663Z,7.60
2019-05-09T12:21:08.414Z,6.07
2019-05-09T12:23:38.090Z,9.07
2019-05-09T12:26:08.776Z,6.50
2019-05-09T12:28:38.667Z,6.87
2019-05-09T12:31:07.904Z,5.97
2019-05-09T12:33:36.687Z,9.87
2019-05-09T12:36:09.274Z,8.57
2019-05-09T12:38:38.878Z,8.57
2019-05-09T12:41:07.876Z,5.17
2019-05-09T12:43:38.571Z,4.80
2019-05-09T12:46:08.755Z,6.60
2019-05-09T12:48:37.329Z,7.90
2019-05-09T12:51:08.193Z,5.63
2019-05-09T12:53:39.373Z,12.33
2019-05-09T12:56:08.248Z,10.13
2019-05-09T12:58:36.838Z,5.43
2019-05-09T13:01:07.515Z,9.50
2019-05-09T13:03:39.013Z,7.97
2019-05-09T13:06:08.259Z,7.67
2019-05-09T13:08:38.546Z,8.97
2019-05-09T13:11:08.000Z,7.47
2019-05-09T13:13:40.846Z,8.83
2019-05-09T13:16:43.433Z,6.27
2019-05-09T13:19:00.231Z,7.90
2019-05-09T13:21:32.215Z,8.77
2019-05-09T13:23:59.575Z,7.90
2019-05-09T13:26:28.813Z,7.83
2019-05-09T13:28:59.133Z,8.50
2019-05-09T13:31:30.654Z,6.37
2019-05-09T13:34:01.078Z,7.70
2019-05-09T13:36:29.588Z,8.20
2019-05-09T13:39:04.679Z,6.33
2019-05-09T13:41:29.101Z,8.67
2019-05-09T13:44:04.881Z,6.57
2019-05-09T13:46:29.765Z,8.63
2019-05-09T13:49:11.335Z,8.33
2019-05-09T13:51:47.042Z,6.17
2019-05-09T13:54:07.077Z,6.93
2019-05-09T13:56:37.247Z,6.17
2019-05-09T13:59:07.988Z,8.27
2019-05-09T14:01:37.782Z,8.07
2019-05-09T14:04:07.978Z,6.87
2019-05-09T14:06:38.936Z,5.90
2019-05-09T14:09:10.545Z,7.47
2019-05-09T14:11:39.353Z,6.97
2019-05-09T14:14:07.853Z,9.20
2019-05-09T14:16:38.776Z,8.50
2019-05-09T14:19:29.787Z,9.83
2019-05-09T14:21:39.695Z,9.63
2019-05-09T14:24:15.020Z,3.03
2019-05-09T14:26:38.567Z,4.10
2019-05-09T14:29:12.125Z,6.13
2019-05-09T14:31:38.871Z,3.27
2019-05-09T14:34:08.787Z,3.70
2019-05-09T14:36:39.097Z,4.47
2019-05-09T14:39:09.317Z,8.10
2019-05-09T14:41:39.139Z,6.17
2019-05-09T14:44:09.322Z,5.40
2019-05-09T14:46:39.148Z,8.77
2019-05-09T14:49:08.124Z,6.83
2019-05-09T14:51:38.054Z,6.50
2019-05-09T14:54:08.633Z,6.63
2019-05-09T14:56:42.042Z,4.27
2019-05-09T14:59:10.915Z,5.67
2019-05-09T15:01:43.660Z,7.43
2019-05-09T15:04:10.004Z,8.70
2019-05-09T15:06:38.838Z,6.67
2019-05-09T15:09:09.461Z,10.37
2019-05-09T15:11:39.969Z,11.20
2019-05-09T15:14:08.569Z,7.30
2019-05-09T15:16:39.314Z,10.17
2019-05-09T15:19:08.671Z,7.63
2019-05-09T15:21:38.243Z,9.87
2019-05-09T15:24:09.238Z,7.43
2019-05-09T15:26:39.741Z,8.70
2019-05-09T15:29:11.211Z,7.50
2019-05-09T15:31:39.774Z,8.73
2019-05-09T15:34:10.352Z,8.97
2019-05-09T15:36:38.601Z,14.23
2019-05-09T15:39:10.010Z,9.40
2019-05-09T15:41:40.106Z,23.53
2019-05-09T15:44:08.835Z,13.10
2019-05-09T15:46:44.975Z,9.73
2019-05-09T15:49:14.994Z,12.53
2019-05-09T15:51:43.692Z,7.37
2019-05-09T15:54:13.823Z,6.50
2019-05-09T15:56:44.303Z,9.03
2019-05-09T15:59:13.302Z,6.80
2019-05-09T16:01:49.022Z,7.73
2019-05-09T16:04:21.318Z,8.43
2019-05-09T16:06:50.232Z,7.17
2019-05-09T16:09:18.170Z,6.83
2019-05-09T16:11:48.421Z,8.30
2019-05-09T16:14:18.421Z,7.07
2019-05-09T16:16:47.926Z,6.00
2019-05-09T16:19:16.815Z,8.77
2019-05-09T16:21:47.771Z,6.20
2019-05-09T16:24:18.878Z,6.63
2019-05-09T16:26:48.831Z,7.03
2019-05-09T16:29:18.021Z,5.67
2019-05-09T16:31:48.221Z,6.00
2019-05-09T16:34:17.749Z,5.70
2019-05-09T16:36:47.993Z,5.80
2019-05-09T16:39:17.922Z,8.70
2019-05-09T16:41:48.359Z,8.10
2019-05-09T16:44:18.241Z,7.00
2019-05-09T16:46:48.505Z,8.23
2019-05-09T16:49:19.992Z,6.67
2019-05-09T16:51:48.590Z,7.00
2019-05-09T16:54:18.118Z,7.40
2019-05-09T16:56:46.884Z,7.20
2019-05-09T16:59:17.553Z,6.70
2019-05-09T17:01:50.114Z,7.10
2019-05-09T17:04:19.092Z,7.33
2019-05-09T17:06:49.923Z,8.47
2019-05-09T17:09:18.782Z,7.93
2019-05-09T17:11:48.135Z,7.13
2019-05-09T17:14:18.939Z,14.60
2019-05-09T17:16:48.250Z,8.77
2019-05-09T17:19:19.485Z,4.37
2019-05-09T17:21:58.671Z,6.17
2019-05-09T17:24:29.590Z,8.60
2019-05-09T17:27:08.721Z,7.07
2019-05-09T17:29:38.306Z,4.77
2019-05-09T17:32:50.758Z,4.57
2019-05-09T17:35:20.322Z,4.17
2019-05-09T17:37:50.318Z,3.10
2019-05-09T17:40:19.900Z,4.37
2019-05-09T17:42:50.088Z,3.23
2019-05-09T17:45:19.926Z,2.73
2019-05-09T17:47:49.587Z,3.00
2019-05-09T17:50:19.391Z,2.03
2019-05-09T17:52:54.218Z,2.87
2019-05-09T17:55:24.470Z,2.40
2019-05-09T17:57:54.178Z,4.77
2019-05-09T18:00:28.012Z,3.77
2019-05-09T18:03:18.183Z,2.13
2019-05-09T18:05:51.471Z,4.03
2019-05-09T18:08:37.717Z,2.73
2019-05-09T18:11:14.325Z,3.10
2019-05-09T18:13:43.578Z,2.80
2019-05-09T18:16:15.042Z,4.30
2019-05-09T18:18:47.892Z,6.40
2019-05-09T18:21:17.767Z,4.60
2019-05-09T18:23:47.983Z,2.87
2019-05-09T18:26:18.677Z,4.70
2019-05-09T18:28:48.541Z,3.90
2019-05-09T18:31:18.417Z,3.97
2019-05-09T18:33:50.436Z,2.13
2019-05-09T18:36:20.926Z,3.13
2019-05-09T18:38:52.518Z,4.87
2019-05-09T18:41:23.030Z,3.87
2019-05-09T18:44:01.791Z,2.30
2019-05-09T18:46:38.458Z,3.83
2019-05-09T18:49:14.456Z,2.97
2019-05-09T18:52:03.741Z,2.13
2019-05-09T18:58:27.104Z,4.73
2019-05-09T19:00:36.593Z,7.70
2019-05-09T19:03:08.034Z,6.00
2019-05-09T19:05:39.817Z,2.73
2019-05-09T19:08:10.722Z,3.23
2019-05-09T19:10:41.194Z,3.97
2019-05-09T19:13:16.119Z,3.43
2019-05-09T19:16:03.114Z,3.63
2019-05-09T19:18:51.127Z,3.00
2019-05-09T19:21:32.558Z,4.03
2019-05-09T19:24:02.412Z,5.20
2019-05-09T19:26:35.379Z,5.57
2019-05-09T19:29:09.120Z,3.60
2019-05-09T19:31:39.159Z,4.10
2019-05-09T19:34:09.019Z,3.77
2019-05-09T19:36:39.077Z,3.97
2019-05-09T19:39:09.543Z,4.23
2019-05-09T19:41:39.420Z,3.10
2019-05-09T19:44:09.209Z,3.13
2019-05-09T19:46:39.558Z,2.80
2019-05-09T19:49:09.273Z,4.20
2019-05-09T19:51:39.083Z,2.33
2019-05-09T19:54:08.909Z,3.73
2019-05-09T19:56:47.231Z,2.90
2019-05-09T19:59:18.217Z,2.87
2019-05-09T20:01:48.226Z,2.07
2019-05-09T20:04:18.168Z,2.70
2019-05-09T20:06:48.032Z,3.23
2019-05-09T20:09:25.183Z,2.53
2019-05-09T20:12:02.184Z,2.67
2019-05-09T20:14:33.803Z,3.90
2019-05-09T20:17:03.936Z,2.77
2019-05-09T20:19:35.286Z,5.70
2019-05-09T20:22:05.097Z,5.20
2019-05-09T20:24:38.866Z,3.03
2019-05-09T20:27:40.731Z,3.67
2019-05-09T20:30:10.603Z,4.77
2019-05-09T20:32:40.368Z,3.30
2019-05-09T20:35:10.280Z,3.83
2019-05-09T20:37:40.529Z,4.80
2019-05-09T20:40:10.510Z,3.90
2019-05-09T20:42:40.626Z,5.30
2019-05-09T20:45:10.995Z,5.10
2019-05-09T20:47:40.839Z,6.13
2019-05-09T20:50:13.927Z,3.87
2019-05-09T20:52:43.875Z,4.40
2019-05-09T20:55:15.721Z,4.67
2019-05-09T20:57:51.975Z,4.40
2019-05-09T21:00:30.762Z,8.80
2019-05-09T21:03:00.767Z,5.57
2019-05-09T21:05:30.670Z,4.10
2019-05-09T21:08:01.991Z,10.63
2019-05-09T21:10:33.486Z,5.00
2019-05-09T21:13:06.325Z,5.57
2019-05-09T21:15:36.587Z,3.93
2019-05-09T21:18:08.510Z,5.53
2019-05-09T21:20:42.370Z,4.90
2019-05-09T21:23:24.894Z,6.43
2019-05-09T21:25:53.265Z,5.43
2019-05-09T21:28:23.106Z,6.27
2019-05-09T21:30:57.070Z,5.23
2019-05-09T21:33:27.708Z,4.00
2019-05-09T21:35:58.977Z,4.60
2019-05-09T21:38:31.110Z,5.53
2019-05-09T21:41:00.844Z,6.23
2019-05-09T21:43:35.036Z,6.10
2019-05-09T21:46:06.407Z,5.03
2019-05-09T21:48:38.824Z,5.37
2019-05-09T21:51:08.665Z,4.60
2019-05-09T21:53:41.592Z,4.60
2019-05-09T21:56:11.515Z,3.53
2019-05-09T21:58:41.541Z,4.50
2019-05-09T22:04:16.652Z,4.60
2019-05-09T22:06:49.244Z,4.63
2019-05-09T22:09:19.173Z,4.53
2019-05-09T22:11:51.523Z,4.10
2019-05-09T22:14:23.193Z,4.60
2019-05-09T22:16:59.190Z,5.43
2019-05-09T22:19:32.027Z,3.90
2019-05-09T22:22:05.293Z,6.67
2019-05-09T22:24:35.344Z,4.60
2019-05-09T22:27:08.177Z,4.67
2019-05-09T22:29:38.031Z,5.17
2019-05-09T22:32:13.325Z,6.13
2019-05-09T22:34:45.692Z,5.33
2019-05-09T22:37:16.085Z,4.13
2019-05-09T22:39:45.825Z,4.03
2019-05-09T22:42:15.530Z,5.13
2019-05-09T22:44:46.870Z,5.37
2019-05-09T22:47:16.547Z,5.43
2019-05-09T22:49:52.777Z,5.77
2019-05-09T22:52:21.777Z,4.80
2019-05-09T22:54:51.747Z,4.67
2019-05-09T22:57:22.602Z,7.23
2019-05-09T22:59:52.264Z,4.70
2019-05-09T23:02:22.092Z,4.83
2019-05-09T23:04:51.804Z,5.00
2019-05-09T23:07:21.482Z,5.33
2019-05-09T23:09:51.258Z,6.30
2019-05-09T23:12:20.965Z,4.93
2019-05-09T23:14:50.622Z,5.07
2019-05-09T23:17:20.902Z,6.33
2019-05-09T23:19:50.625Z,5.23
2019-05-09T23:22:22.240Z,5.40
2019-05-09T23:24:51.874Z,5.67
2019-05-09T23:27:21.810Z,6.50
2019-05-09T23:29:51.791Z,6.07
2019-05-09T23:32:23.450Z,6.37
2019-05-09T23:34:53.158Z,5.50
2019-05-09T23:37:22.983Z,6.33
2019-05-09T23:39:54.702Z,6.37
2019-05-09T23:42:24.927Z,5.80
2019-05-09T23:44:55.109Z,8.03
2019-05-09T23:47:24.822Z,6.80
2019-05-09T23:49:54.799Z,6.30
2019-05-09T23:52:24.792Z,6.97
2019-05-09T23:55:14.041Z,7.17
2019-05-09T23:58:01.614Z,8.27
